Time;durP1;ratioP1;P1;durP2;ratioP2;P2;SDS_P1;SDS_P2;PMS_P1;PMS_P2;Temp;Humidity;BMP_temperature;BMP_pressure;BME280_temperature;BME280_humidity;BME280_pressure;Samples;Min_cycle;Max_cycle;Signal;HPM_P1;HPM_P2
2021/04/10 00:01:17;;;;;;;69.28;32.42;;;76.80;1971.20;;;;;;5071606;28;20056;-68
2021/04/10 00:03:43;;;;;;;62.08;31.13;;;76.90;1945.60;;;;;;5071429;28;20394;-67
2021/04/10 00:06:10;;;;;;;52.90;29.00;;;76.90;1945.60;;;;;;5071277;28;20027;-70
2021/04/10 00:08:36;;;;;;;56.17;27.77;;;76.90;1945.60;;;;;;5070391;28;20024;-68
2021/04/10 00:11:02;;;;;;;53.20;29.58;;;76.90;1920.00;;;;;;5071323;28;20039;-67
2021/04/10 00:13:28;;;;;;;53.10;29.13;;;76.90;1920.00;;;;;;5071338;28;20025;-67
2021/04/10 00:15:54;;;;;;;46.22;25.67;;;76.90;1920.00;;;;;;5067769;28;20386;-68
2021/04/10 00:18:19;;;;;;;59.85;26.02;;;76.90;1945.60;;;;;;5071600;28;20029;-70
2021/04/10 00:20:45;;;;;;;47.70;21.75;;;76.90;1920.00;;;;;;5071012;28;20081;-68
2021/04/10 00:23:11;;;;;;;36.75;18.30;;;76.90;1920.00;;;;;;5070980;28;20040;-68
2021/04/10 00:25:37;;;;;;;31.60;16.17;;;76.90;1920.00;;;;;;5071285;28;20756;-68
2021/04/10 00:28:03;;;;;;;26.25;13.65;;;76.90;1894.40;;;;;;5069882;28;20024;-68
2021/04/10 00:30:29;;;;;;;33.20;18.48;;;77.00;1843.20;;;;;;5070997;28;20012;-67
2021/04/10 00:32:55;;;;;;;32.17;17.98;;;77.00;1868.80;;;;;;5071053;28;20367;-69
2021/04/10 00:35:21;;;;;;;30.02;15.75;;;77.00;1868.80;;;;;;5071168;28;20025;-71
2021/04/10 00:37:47;;;;;;;23.83;13.73;;;76.90;1868.80;;;;;;5071073;28;20021;-69
2021/04/10 00:40:13;;;;;;;24.65;13.88;;;77.00;1843.20;;;;;;5070765;28;20036;-69
2021/04/10 00:42:40;;;;;;;27.00;14.02;;;77.00;1817.60;;;;;;5071153;28;20394;-68
2021/04/10 00:45:08;;;;;;;49.75;22.33;;;77.00;1843.20;;;;;;5070634;28;20040;-68
2021/04/10 00:47:34;;;;;;;30.05;15.60;;;77.00;1894.40;;;;;;5071169;28;20516;-68
2021/04/10 00:50:00;;;;;;;29.65;16.15;;;76.90;1868.80;;;;;;5070628;28;20029;-69
2021/04/10 00:52:28;;;;;;;24.98;13.32;;;76.90;1868.80;;;;;;5071303;28;20034;-67
2021/04/10 00:54:54;;;;;;;22.33;12.07;;;76.90;1868.80;;;;;;5071497;28;20025;-68
2021/04/10 00:57:21;;;;;;;26.55;13.52;;;77.00;1868.80;;;;;;5071352;28;20027;-68
2021/04/10 00:59:47;;;;;;;22.52;11.68;;;76.90;1868.80;;;;;;5070427;28;20418;-69
2021/04/10 01:02:14;;;;;;;22.05;12.23;;;77.00;1868.80;;;;;;5069660;28;20399;-68
2021/04/10 01:04:42;;;;;;;23.65;12.48;;;77.00;1868.80;;;;;;5071016;28;20032;-68
2021/04/10 01:07:09;;;;;;;22.00;12.75;;;76.90;1894.40;;;;;;5070810;28;20063;-69
2021/04/10 01:09:36;;;;;;;29.35;16.85;;;76.80;1894.40;;;;;;5070484;28;20037;-68
2021/04/10 01:12:43;;;;;;;26.38;14.25;;;76.80;1920.00;;;;;;5070723;28;20020;-68
2021/04/10 01:15:44;;;;;;;24.83;13.55;;;76.80;1920.00;;;;;;5049613;28;20051;-69
2021/04/10 01:18:27;;;;;;;31.15;16.05;;;52.10;1945.60;;;;;;5051629;28;20394;-68
2021/04/10 01:21:10;;;;;;;27.83;15.50;;;52.10;1945.60;;;;;;5070402;28;20158;-69
2021/04/10 01:24:09;;;;;;;38.65;18.92;;;52.10;1945.60;;;;;;5070674;28;20100;-72
2021/04/10 01:27:01;;;;;;;95.25;40.20;;;52.00;1945.60;;;;;;5063499;28;20033;-70
2021/04/10 01:29:27;;;;;;;62.88;28.73;;;52.00;1945.60;;;;;;5070126;28;20016;-68
2021/04/10 01:31:55;;;;;;;43.97;23.92;;;52.00;1971.20;;;;;;5070521;28;20020;-68
2021/04/10 01:34:30;;;;;;;50.78;25.42;;;52.00;1945.60;;;;;;5070440;28;20083;-68
2021/04/10 01:37:03;;;;;;;40.90;21.85;;;51.90;1971.20;;;;;;5070675;28;20023;-68
2021/04/10 01:39:31;;;;;;;35.10;17.75;;;51.90;1996.80;;;;;;5070158;28;20020;-69
2021/04/10 01:41:58;;;;;;;30.67;15.77;;;51.80;2022.40;;;;;;5070393;28;20052;-69
2021/04/10 01:44:25;;;;;;;23.63;11.45;;;51.70;1996.80;;;;;;5070432;28;20024;-68
2021/04/10 01:46:52;;;;;;;24.10;11.63;;;51.80;1996.80;;;;;;5070593;28;20386;-68
2021/04/10 01:49:18;;;;;;;20.35;11.15;;;51.70;1996.80;;;;;;5070207;28;20383;-67
2021/04/10 01:51:46;;;;;;;18.92;10.15;;;51.70;2022.40;;;;;;5070236;28;20032;-69
2021/04/10 01:54:13;;;;;;;18.27;9.60;;;51.70;2022.40;;;;;;5070459;28;20120;-68
2021/04/10 01:56:43;;;;;;;23.10;11.38;;;51.70;2022.40;;;;;;5070641;28;20049;-67
2021/04/10 01:59:12;;;;;;;18.57;10.70;;;51.60;2022.40;;;;;;5073905;28;20144;-68
2021/04/10 02:01:40;;;;;;;17.98;9.82;;;51.60;2022.40;;;;;;5073797;28;20336;-68
2021/04/10 02:04:08;;;;;;;20.15;10.00;;;51.60;2048.00;;;;;;5073898;28;20028;-68
2021/04/10 02:06:34;;;;;;;18.83;10.10;;;51.50;2048.00;;;;;;5073601;28;20074;-69
2021/04/10 02:09:01;;;;;;;27.00;13.50;;;51.50;2073.60;;;;;;5073566;28;20023;-68
2021/04/10 02:11:27;;;;;;;29.60;15.20;;;51.50;2073.60;;;;;;5073535;28;20021;-69
2021/04/10 02:13:54;;;;;;;26.30;13.35;;;51.40;2073.60;;;;;;5073639;28;20067;-68
2021/04/10 02:16:21;;;;;;;25.63;13.80;;;51.40;2073.60;;;;;;5073761;28;20418;-68
2021/04/10 02:18:48;;;;;;;24.95;13.60;;;51.30;2073.60;;;;;;5073186;28;20127;-68
2021/04/10 02:21:21;;;;;;;32.08;15.25;;;51.30;2099.20;;;;;;5073477;28;20029;-70
2021/04/10 02:23:46;;;;;;;30.35;15.55;;;51.30;2073.60;;;;;;5073294;28;20378;-68
2021/04/10 02:26:13;;;;;;;33.28;17.23;;;51.20;2150.40;;;;;;5073266;28;20074;-68
2021/04/10 02:28:39;;;;;;;28.17;15.20;;;26.50;2124.80;;;;;;5073388;28;20082;-68
2021/04/10 02:31:05;;;;;;;21.98;11.60;;;26.50;2099.20;;;;;;5073355;28;20025;-67
2021/04/10 02:33:41;;;;;;;21.27;11.73;;;26.50;2099.20;;;;;;5072112;28;20056;-67
2021/04/10 02:36:12;;;;;;;21.58;11.90;;;26.50;2099.20;;;;;;5073201;28;20027;-68
2021/04/10 02:38:38;;;;;;;;;;;26.50;2073.60;;;;;;5073409;28;20166;-67
2021/04/10 02:41:12;;;;;;;23.08;10.57;;;26.50;2048.00;;;;;;5073107;28;19912;-68
2021/04/10 02:43:43;;;;;;;20.00;10.30;;;26.50;2073.60;;;;;;5073173;28;20035;-70
2021/04/10 02:46:11;;;;;;;22.45;10.80;;;26.50;2073.60;;;;;;5073047;28;20040;-68
2021/04/10 02:48:46;;;;;;;21.85;11.10;;;26.50;2048.00;;;;;;5072671;28;20036;-68
2021/04/10 02:51:13;;;;;;;19.25;10.60;;;26.50;2048.00;;;;;;5072762;28;20479;-68
2021/04/10 02:53:41;;;;;;;19.33;10.13;;;26.50;2048.00;;;;;;5072849;28;20073;-73
2021/04/10 02:56:08;;;;;;;20.20;10.35;;;26.50;2048.00;;;;;;5072879;28;20021;-73
2021/04/10 02:58:34;;;;;;;21.45;10.60;;;26.50;2048.00;;;;;;5072578;28;20124;-69
2021/04/10 03:01:00;;;;;;;21.25;10.70;;;26.50;2073.60;;;;;;5072782;28;20012;-69
2021/04/10 03:03:29;;;;;;;22.15;10.88;;;26.50;2073.60;;;;;;5072604;28;20029;-69
2021/04/10 03:05:56;;;;;;;22.92;10.80;;;26.50;2073.60;;;;;;5072510;28;20552;-69
2021/04/10 03:08:23;;;;;;;21.20;11.38;;;26.50;2099.20;;;;;;5072367;28;20382;-69
2021/04/10 03:10:52;;;;;;;21.98;11.60;;;26.40;2099.20;;;;;;5072342;28;20021;-68
2021/04/10 03:13:19;;;;;;;23.83;12.80;;;26.40;2099.20;;;;;;5072255;28;20112;-69
2021/04/10 03:15:49;;;;;;;21.63;12.45;;;26.40;2124.80;;;;;;5072392;28;20020;-69
2021/04/10 03:18:16;;;;;;;21.17;10.73;;;26.30;2150.40;;;;;;5072222;28;20527;-69
2021/04/10 03:20:44;;;;;;;17.75;9.85;;;26.20;2176.00;;;;;;5072216;28;20033;-69
2021/04/10 03:23:10;;;;;;;17.70;9.73;;;26.20;2150.40;;;;;;5072421;28;20615;-70
2021/04/10 03:25:36;;;;;;;17.75;9.30;;;26.10;2150.40;;;;;;5071842;28;20051;-69
2021/04/10 03:28:04;;;;;;;17.38;9.52;;;26.10;2150.40;;;;;;5072122;28;20139;-69
2021/04/10 03:30:30;;;;;;;15.18;7.97;;;26.10;2150.40;;;;;;5071695;28;20031;-69
2021/04/10 03:32:56;;;;;;;14.00;7.95;;;26.10;2150.40;;;;;;5071892;28;20019;-69
2021/04/10 03:35:27;;;;;;;13.27;7.72;;;26.00;2150.40;;;;;;5072027;28;20024;-70
2021/04/10 03:37:57;;;;;;;13.80;7.53;;;26.00;2150.40;;;;;;5071561;28;20096;-70
2021/04/10 03:40:23;;;;;;;15.50;7.68;;;26.00;2150.40;;;;;;5083642;28;20103;-69
2021/04/10 03:42:49;;;;;;;16.27;7.97;;;26.00;2176.00;;;;;;5091814;28;20024;-69
2021/04/10 03:45:19;;;;;;;14.18;7.22;;;26.00;2150.40;;;;;;5092188;28;20092;-69
2021/04/10 03:47:45;;;;;;;15.60;7.40;;;26.00;2176.00;;;;;;5091688;28;20028;-69
2021/04/10 03:50:12;;;;;;;13.25;6.75;;;26.00;2150.40;;;;;;5081478;28;20107;-69
2021/04/10 03:52:38;;;;;;;14.10;6.68;;;26.00;2124.80;;;;;;5071290;28;20110;-69
2021/04/10 03:55:06;;;;;;;14.23;6.72;;;26.00;2124.80;;;;;;5071687;28;20052;-69
2021/04/10 03:57:33;;;;;;;13.60;6.38;;;26.00;2124.80;;;;;;5071374;28;20100;-69
2021/04/10 03:59:59;;;;;;;12.88;6.18;;;26.10;2099.20;;;;;;5070976;28;20052;-69
2021/04/10 04:02:25;;;;;;;14.20;6.75;;;26.20;2073.60;;;;;;5071479;28;20024;-68
2021/04/10 04:04:51;;;;;;;14.07;6.85;;;26.30;2022.40;;;;;;5070001;28;20371;-69
2021/04/10 04:07:17;;;;;;;15.05;7.40;;;26.30;2022.40;;;;;;5070852;28;20035;-70
2021/04/10 04:09:43;;;;;;;16.42;9.32;;;26.30;2022.40;;;;;;5070576;28;20044;-69
2021/04/10 04:12:09;;;;;;;18.00;9.40;;;26.40;2022.40;;;;;;5070989;28;20031;-70
2021/04/10 04:14:36;;;;;;;19.42;9.57;;;26.40;2022.40;;;;;;5071141;28;20505;-69
2021/04/10 04:17:04;;;;;;;17.90;9.02;;;26.50;1996.80;;;;;;5071110;28;20021;-69
2021/04/10 04:19:30;;;;;;;15.70;8.35;;;26.50;1996.80;;;;;;5070889;28;20390;-68
2021/04/10 04:21:56;;;;;;;18.02;8.57;;;51.20;2022.40;;;;;;5070819;28;20013;-68
2021/04/10 04:24:22;;;;;;;19.50;9.95;;;51.30;1996.80;;;;;;5071261;28;20031;-69
2021/04/10 04:26:47;;;;;;;16.45;8.77;;;51.30;1996.80;;;;;;5071065;28;20082;-69
2021/04/10 04:29:13;;;;;;;18.10;9.68;;;51.40;1971.20;;;;;;5070793;28;20478;-69
2021/04/10 04:31:39;;;;;;;17.42;9.63;;;51.60;1971.20;;;;;;5070955;28;20033;-69
2021/04/10 04:34:05;;;;;;;19.63;9.30;;;51.70;1945.60;;;;;;5069978;28;20035;-68
2021/04/10 04:36:30;;;;;;;20.00;10.07;;;51.90;1945.60;;;;;;5071112;28;20040;-69
2021/04/10 04:38:56;;;;;;;21.83;11.40;;;52.10;1920.00;;;;;;5070671;28;20021;-69
2021/04/10 04:41:22;;;;;;;18.58;10.02;;;76.80;1894.40;;;;;;5071277;28;20021;-69
2021/04/10 04:43:49;;;;;;;18.08;9.85;;;76.90;1894.40;;;;;;5071042;28;20044;-69
2021/04/10 04:46:14;;;;;;;19.67;10.40;;;76.90;1868.80;;;;;;5070703;28;20033;-70
2021/04/10 04:48:40;;;;;;;22.05;11.63;;;77.10;1868.80;;;;;;5070485;28;20029;-70
2021/04/10 04:51:07;;;;;;;20.80;12.23;;;77.60;1817.60;;;;;;5071230;28;20024;-69
2021/04/10 04:53:33;;;;;;;28.50;13.60;;;102.80;1766.40;;;;;;5069370;28;20487;-69
2021/04/10 04:55:58;;;;;;;22.52;13.70;;;102.90;1715.20;;;;;;5070892;28;20036;-69
2021/04/10 04:58:24;;;;;;;19.25;11.90;;;102.90;1740.80;;;;;;5070494;28;20032;-69
2021/04/10 05:00:50;;;;;;;18.60;10.18;;;102.90;1740.80;;;;;;5070997;28;20025;-72
2021/04/10 05:03:16;;;;;;;17.10;9.32;;;103.00;1715.20;;;;;;5070344;28;20055;-69
2021/04/10 05:05:42;;;;;;;19.15;9.60;;;103.30;1689.60;;;;;;5070875;28;20032;-69
2021/04/10 05:08:08;;;;;;;18.77;9.18;;;128.30;1689.60;;;;;;5070868;28;20386;-69
2021/04/10 05:10:34;;;;;;;17.15;9.68;;;153.70;1612.80;;;;;;5070586;28;20020;-68
2021/04/10 05:13:00;;;;;;;18.92;11.25;;;179.20;1536.00;;;;;;5070800;28;20099;-72
2021/04/10 05:15:26;;;;;;;21.02;12.13;;;180.10;1433.60;;;;;;5070391;28;20546;-73
2021/04/10 05:17:51;;;;;;;27.77;15.07;;;205.30;1382.40;;;;;;5070567;28;20498;-72
2021/04/10 05:20:17;;;;;;;28.00;16.63;;;230.40;1356.80;;;;;;5070184;28;20017;-72
2021/04/10 05:22:43;;;;;;;30.75;16.63;;;230.80;1305.60;;;;;;5070482;28;20024;-69
2021/04/10 05:25:09;;;;;;;30.55;18.50;;;231.30;1280.00;;;;;;5070367;28;20056;-68
2021/04/10 05:27:36;;;;;;;32.50;19.73;;;256.50;1228.80;;;;;;5070287;28;20017;-69
2021/04/10 05:30:02;;;;;;;34.53;21.10;;;281.70;1228.80;;;;;;5070440;28;20052;-69
2021/04/10 05:32:28;;;;;;;36.17;21.73;;;282.00;1203.20;;;;;;5067097;28;20059;-69
2021/04/10 05:34:54;;;;;;;30.45;19.10;;;307.30;1177.60;;;;;;5074534;28;20083;-69
2021/04/10 05:37:20;;;;;;;30.20;18.15;;;307.80;1126.40;;;;;;5074166;28;20387;-68
2021/04/10 05:39:46;;;;;;;31.48;16.48;;;332.80;1126.40;;;;;;5073490;28;20032;-69
2021/04/10 05:42:12;;;;;;;27.08;15.52;;;308.00;1100.80;;;;;;5074212;28;20052;-69
2021/04/10 05:44:38;;;;;;;32.65;20.05;;;333.10;1100.80;;;;;;5073756;28;20029;-69
2021/04/10 05:47:04;;;;;;;21.10;14.05;;;333.10;1100.80;;;;;;5074106;28;20029;-69
2021/04/10 05:49:30;;;;;;;39.45;25.50;;;333.40;1075.20;;;;;;5073418;28;20029;-71
2021/04/10 05:51:56;;;;;;;31.77;23.83;;;333.40;1075.20;;;;;;5073932;28;20095;-70
2021/04/10 05:54:22;;;;;;;36.13;25.95;;;333.50;1049.60;;;;;;5073658;28;20037;-70
2021/04/10 05:56:48;;;;;;;40.65;26.52;;;358.60;1049.60;;;;;;5073841;28;20031;-71
2021/04/10 05:59:14;;;;;;;55.85;31.88;;;358.90;1024.00;;;;;;5073310;28;20094;-69
2021/04/10 06:01:40;;;;;;;46.08;25.33;;;359.10;1024.00;;;;;;5073787;28;20055;-69
2021/04/10 06:04:06;;;;;;;22.17;14.80;;;384.00;998.40;;;;;;5073629;28;20050;-69
2021/04/10 06:06:32;;;;;;;15.25;11.57;;;384.40;972.80;;;;;;5073717;28;20970;-68
2021/04/10 06:08:57;;;;;;;23.17;15.02;;;384.10;998.40;;;;;;5072903;28;20016;-71
2021/04/10 06:11:23;;;;;;;22.00;14.63;;;359.20;998.40;;;;;;5077505;28;20025;-69
2021/04/10 06:13:49;;;;;;;13.98;11.07;;;384.20;1024.00;;;;;;5073702;28;20054;-69
2021/04/10 06:16:15;;;;;;;16.10;11.55;;;384.60;998.40;;;;;;5066188;28;20057;-70
2021/04/10 06:18:40;;;;;;;19.35;13.65;;;410.50;947.20;;;;;;5071542;28;20099;-69
2021/04/10 06:21:07;;;;;;;14.80;10.20;;;409.70;972.80;;;;;;5073191;28;20028;-68
2021/04/10 06:23:33;;;;;;;15.02;10.70;;;410.00;947.20;;;;;;5072977;28;20517;-68
2021/04/10 06:25:58;;;;;;;22.67;14.23;;;410.20;921.60;;;;;;5072909;28;20028;-69
2021/04/10 06:28:24;;;;;;;21.17;13.35;;;435.70;896.00;;;;;;5072960;28;20058;-69
2021/04/10 06:30:50;;;;;;;17.17;11.70;;;435.90;896.00;;;;;;5072794;28;20486;-69
2021/04/10 06:33:16;;;;;;;13.10;9.60;;;486.40;870.40;;;;;;5072828;28;20100;-70
2021/04/10 06:35:42;;;;;;;14.15;10.07;;;461.40;819.20;;;;;;5072919;28;20027;-69
2021/04/10 06:38:08;;;;;;;15.20;10.32;;;486.70;844.80;;;;;;5073362;28;20029;-69
2021/04/10 06:40:34;;;;;;;18.38;12.20;;;486.70;844.80;;;;;;5072696;28;20106;-69
2021/04/10 06:43:02;;;;;;;12.30;9.25;;;486.70;844.80;;;;;;5072581;28;20017;-69
2021/04/10 06:45:28;;;;;;;13.68;9.77;;;461.70;844.80;;;;;;5073164;28;20395;-68
2021/04/10 06:47:55;;;;;;;17.25;12.20;;;512.80;793.60;;;;;;5073013;28;20523;-70
2021/04/10 06:50:22;;;;;;;17.30;11.88;;;512.40;793.60;;;;;;5072537;28;20025;-70
2021/04/10 06:52:51;;;;;;;11.75;9.10;;;512.90;793.60;;;;;;5072835;28;20024;-68
2021/04/10 06:55:18;;;;;;;15.00;10.88;;;563.60;793.60;;;;;;5072648;28;20036;-70
2021/04/10 06:58:04;;;;;;;13.75;10.05;;;538.50;793.60;;;;;;5072914;28;20029;-73
2021/04/10 07:00:31;;;;;;;18.05;13.75;;;614.60;742.40;;;;;;5072395;28;20044;-69
2021/04/10 07:03:02;;;;;;;16.45;11.07;;;589.30;742.40;;;;;;5072545;28;20050;-69
2021/04/10 07:05:29;;;;;;;12.60;8.55;;;589.50;742.40;;;;;;5072751;28;20390;-72
2021/04/10 07:07:55;;;;;;;12.40;8.88;;;615.00;742.40;;;;;;5072426;28;20028;-70
2021/04/10 07:10:22;;;;;;;10.57;8.40;;;640.50;716.80;;;;;;5072168;28;20025;-72
2021/04/10 07:12:47;;;;;;;12.18;9.10;;;640.90;691.20;;;;;;5072592;28;20021;-67
2021/04/10 07:15:16;;;;;;;17.15;11.23;;;640.90;691.20;;;;;;5072289;28;20027;-72
2021/04/10 07:17:41;;;;;;;11.73;9.65;;;691.20;665.60;;;;;;5072433;28;20391;-69
2021/04/10 07:20:27;;;;;;;13.18;10.35;;;691.30;691.20;;;;;;5071938;28;20033;-76
2021/04/10 07:23:05;;;;;;;13.30;10.35;;;691.80;665.60;;;;;;5072202;28;20103;-70
2021/04/10 07:25:33;;;;;;;13.55;10.05;;;666.20;691.20;;;;;;5071650;28;20025;-68
2021/04/10 07:28:28;;;;;;;12.07;8.43;;;640.90;691.20;;;;;;5072475;28;20025;-67
2021/04/10 07:31:13;;;;;;;18.35;14.32;;;691.50;691.20;;;;;;5067896;28;20029;-68
2021/04/10 07:33:42;;;;;;;14.73;11.27;;;666.20;691.20;;;;;;5071600;28;20016;-68
2021/04/10 07:36:15;;;;;;;11.02;8.30;;;640.70;691.20;;;;;;5072173;28;20032;-68
2021/04/10 07:38:43;;;;;;;13.30;9.07;;;640.50;691.20;;;;;;5071674;28;20095;-69
2021/04/10 07:41:15;;;;;;;12.63;9.35;;;640.80;691.20;;;;;;5071695;28;20021;-70
2021/04/10 07:43:43;;;;;;;15.02;9.30;;;640.90;691.20;;;;;;5071905;28;20086;-69
2021/04/10 07:46:27;;;;;;;14.80;10.52;;;666.20;716.80;;;;;;5071537;28;20482;-68
2021/04/10 07:49:08;;;;;;;21.88;14.50;;;691.60;640.00;;;;;;5071279;28;20021;-69
2021/04/10 07:51:51;;;;;;;37.00;19.75;;;717.20;665.60;;;;;;5071427;28;20013;-69
2021/04/10 07:54:42;;;;;;;147.95;128.93;;;717.10;665.60;;;;;;5070554;28;20025;-68
2021/04/10 07:57:10;;;;;;;30.63;24.33;;;666.20;691.20;;;;;;5064068;28;20410;-71
2021/04/10 07:59:45;;;;;;;20.73;16.98;;;666.00;691.20;;;;;;5070774;28;20525;-68
2021/04/10 08:02:13;;;;;;;24.88;19.73;;;691.90;665.60;;;;;;5072068;28;20073;-69
2021/04/10 08:04:40;;;;;;;14.38;11.30;;;716.90;665.60;;;;;;5071442;28;20029;-69
2021/04/10 08:07:07;;;;;;;13.48;10.30;;;768.30;640.00;;;;;;5071506;28;20025;-69
2021/04/10 08:09:38;;;;;;;9.40;7.20;;;743.30;640.00;;;;;;5071027;28;20150;-69
2021/04/10 08:12:11;;;;;;;10.95;7.85;;;742.60;665.60;;;;;;5071207;28;20020;-69
2021/04/10 08:14:46;;;;;;;8.43;5.90;;;717.10;665.60;;;;;;5071556;28;20028;-69
2021/04/10 08:17:35;;;;;;;8.90;6.72;;;717.50;640.00;;;;;;5071355;28;20051;-71
2021/04/10 08:20:28;;;;;;;8.80;6.25;;;743.10;640.00;;;;;;5070663;28;20025;-71
2021/04/10 08:23:22;;;;;;;7.10;5.22;;;742.90;640.00;;;;;;5071370;28;20024;-72
2021/04/10 08:25:48;;;;;;;9.00;6.30;;;768.40;614.40;;;;;;5068589;28;20017;-73
2021/04/10 08:28:15;;;;;;;6.55;5.20;;;793.60;614.40;;;;;;5071113;28;20448;-72
2021/04/10 08:30:42;;;;;;;7.15;4.88;;;768.00;614.40;;;;;;5070718;28;20021;-70
2021/04/10 08:33:08;;;;;;;8.68;5.40;;;717.70;614.40;;;;;;5071320;28;20024;-70
2021/04/10 08:35:34;;;;;;;6.95;5.28;;;742.90;640.00;;;;;;5070933;28;20166;-71
2021/04/10 08:38:02;;;;;;;8.30;5.10;;;768.20;614.40;;;;;;5085784;28;20032;-72
2021/04/10 08:40:30;;;;;;;7.57;4.88;;;742.60;640.00;;;;;;5083144;28;20031;-72
2021/04/10 08:42:59;;;;;;;7.35;5.72;;;768.40;588.80;;;;;;5084059;28;20013;-71
2021/04/10 08:45:29;;;;;;;9.80;4.53;;;794.20;588.80;;;;;;5071105;28;20032;-69
2021/04/10 08:48:00;;;;;;;8.05;4.32;;;820.00;588.80;;;;;;5070872;28;20027;-68
2021/04/10 08:50:26;;;;;;;8.73;4.90;;;844.80;588.80;;;;;;5070636;28;20099;-69
2021/04/10 08:52:52;;;;;;;7.63;4.65;;;845.30;588.80;;;;;;5069672;28;20427;-70
2021/04/10 08:55:18;;;;;;;8.77;5.50;;;820.10;588.80;;;;;;5070874;28;20017;-70
2021/04/10 08:57:44;;;;;;;7.35;4.78;;;870.50;588.80;;;;;;5083438;28;20036;-73
2021/04/10 09:00:23;;;;;;;7.53;5.00;;;845.30;588.80;;;;;;5081398;28;20116;-68
2021/04/10 09:02:59;;;;;;;10.07;5.22;;;870.70;563.20;;;;;;5081687;28;20035;-69
2021/04/10 09:05:51;;;;;;;6.45;4.57;;;896.90;512.00;;;;;;5088458;28;20363;-69
2021/04/10 09:08:27;;;;;;;6.93;4.82;;;870.70;537.60;;;;;;5091082;28;20095;-68
2021/04/10 09:10:58;;;;;;;9.18;5.25;;;793.70;588.80;;;;;;5074820;28;20100;-70
2021/04/10 09:13:29;;;;;;;7.88;4.20;;;794.00;614.40;;;;;;5074831;28;20022;-69
2021/04/10 09:16:13;;;;;;;;;;;819.50;588.80;;;;;;5075112;28;20024;-70
2021/04/10 09:18:39;;;;;;;6.72;4.55;;;819.90;563.20;;;;;;5075593;28;19927;-69
2021/04/10 09:21:11;;;;;;;7.43;4.85;;;819.50;588.80;;;;;;5074290;28;20474;-70
2021/04/10 09:23:37;;;;;;;5.80;4.10;;;844.90;563.20;;;;;;5074910;28;20033;-69
2021/04/10 09:26:08;;;;;;;5.85;3.90;;;819.30;588.80;;;;;;5077131;28;20024;-69
2021/04/10 09:28:35;;;;;;;6.18;3.92;;;768.70;588.80;;;;;;5092249;28;20382;-77
2021/04/10 09:31:02;;;;;;;6.25;4.05;;;819.60;563.20;;;;;;5087664;28;20591;-77
2021/04/10 09:33:30;;;;;;;6.47;3.90;;;819.40;563.20;;;;;;5085487;28;20023;-69
2021/04/10 09:36:01;;;;;;;8.95;6.50;;;768.30;614.40;;;;;;5077881;28;20025;-71
2021/04/10 09:38:43;;;;;;;;;;;691.30;640.00;;;;;;5089155;28;20486;-70
2021/04/10 09:41:10;;;;;;;7.10;4.55;;;640.80;640.00;;;;;;5090067;28;19927;-69
2021/04/10 09:44:05;;;;;;;7.00;4.15;;;589.50;742.40;;;;;;5090327;28;20113;-69
2021/04/10 09:46:37;;;;;;;5.35;3.40;;;564.10;742.40;;;;;;5091760;28;20046;-71
2021/04/10 09:49:03;;;;;;;8.48;4.15;;;563.20;742.40;;;;;;5090866;28;20017;-69
2021/04/10 09:51:38;;;;;;;5.30;3.38;;;512.80;716.80;;;;;;5090254;28;20070;-70
2021/04/10 09:54:05;;;;;;;5.45;3.17;;;486.70;768.00;;;;;;5091075;28;20106;-70
2021/04/10 09:56:32;;;;;;;6.68;3.83;;;461.60;793.60;;;;;;5085002;28;20486;-71
2021/04/10 09:59:02;;;;;;;5.43;3.38;;;461.30;819.20;;;;;;5089558;28;20700;-75
2021/04/10 10:01:31;;;;;;;7.00;3.03;;;460.90;819.20;;;;;;5086786;28;20031;-70
2021/04/10 10:03:57;;;;;;;6.43;3.60;;;460.80;819.20;;;;;;5092164;28;20020;-70
2021/04/10 10:06:25;;;;;;;5.88;3.42;;;461.10;844.80;;;;;;5085507;28;20028;-70
2021/04/10 10:08:52;;;;;;;6.70;3.65;;;461.20;844.80;;;;;;5087852;28;20020;-72
2021/04/10 10:11:18;;;;;;;6.28;3.78;;;461.20;819.20;;;;;;5069333;28;20031;-73
2021/04/10 10:13:45;;;;;;;6.15;3.70;;;461.10;819.20;;;;;;5074592;28;20160;-71
2021/04/10 10:16:11;;;;;;;5.07;3.05;;;461.40;819.20;;;;;;5087873;28;20034;-70
2021/04/10 10:18:42;;;;;;;6.80;3.70;;;460.80;819.20;;;;;;5087468;28;20024;-69
2021/04/10 10:21:22;;;;;;;9.18;4.40;;;460.90;819.20;;;;;;5092908;28;20035;-70
2021/04/10 10:23:52;;;;;;;7.53;3.83;;;461.20;870.40;;;;;;5079441;28;20049;-68
2021/04/10 10:26:32;;;;;;;19.13;13.90;;;461.60;870.40;;;;;;5091106;28;20073;-69
2021/04/10 10:29:00;;;;;;;4.25;2.50;;;461.40;819.20;;;;;;5084006;28;20029;-71
2021/04/10 10:31:39;;;;;;;5.32;2.63;;;461.20;768.00;;;;;;5087479;28;20095;-71
2021/04/10 10:34:07;;;;;;;4.90;2.60;;;461.20;768.00;;;;;;5084739;28;20021;-70
2021/04/10 10:36:35;;;;;;;4.05;2.22;;;461.30;793.60;;;;;;5078227;28;20031;-72
2021/04/10 10:39:01;;;;;;;6.28;3.08;;;461.20;793.60;;;;;;5089922;28;20024;-71
2021/04/10 10:41:28;;;;;;;4.97;2.80;;;460.90;793.60;;;;;;5083024;28;20024;-70
2021/04/10 10:44:00;;;;;;;6.03;3.28;;;461.10;793.60;;;;;;5092452;28;20118;-69
2021/04/10 10:46:26;;;;;;;4.25;2.40;;;461.50;819.20;;;;;;5073766;28;20078;-68
2021/04/10 10:48:52;;;;;;;5.40;2.20;;;461.70;768.00;;;;;;5068981;28;20033;-68
2021/04/10 10:51:20;;;;;;;4.28;2.20;;;461.20;768.00;;;;;;5081650;28;20482;-71
2021/04/10 10:53:51;;;;;;;4.93;2.22;;;461.50;793.60;;;;;;5083270;28;20028;-69
2021/04/10 10:56:26;;;;;;;4.65;2.35;;;461.60;742.40;;;;;;5072440;28;20025;-69
2021/04/10 10:58:58;;;;;;;4.50;2.30;;;486.50;768.00;;;;;;5062429;28;20059;-69
2021/04/10 11:01:42;;;;;;;4.97;2.58;;;486.90;742.40;;;;;;5083642;28;20020;-69
2021/04/10 11:04:09;;;;;;;5.85;2.78;;;486.50;768.00;;;;;;5081736;28;20127;-71
2021/04/10 11:06:43;;;;;;;4.75;2.30;;;461.70;742.40;;;;;;5085568;28;20486;-71
2021/04/10 11:09:11;;;;;;;6.88;2.70;;;486.40;742.40;;;;;;5072459;28;20017;-74
2021/04/10 11:11:40;;;;;;;6.00;3.17;;;486.40;742.40;;;;;;5072650;28;20028;-73
2021/04/10 11:14:07;;;;;;;5.13;2.38;;;461.70;742.40;;;;;;5063607;28;20025;-71
2021/04/10 11:16:44;;;;;;;5.05;2.78;;;486.60;716.80;;;;;;5070994;28;20020;-74
2021/04/10 11:19:10;;;;;;;5.18;2.80;;;486.80;742.40;;;;;;5072336;28;20036;-71
2021/04/10 11:21:36;;;;;;;5.50;3.13;;;486.50;742.40;;;;;;5071550;28;20098;-72
2021/04/10 11:24:06;;;;;;;5.50;3.30;;;487.00;742.40;;;;;;5066774;28;20060;-70
2021/04/10 11:26:53;;;;;;;4.47;2.50;;;486.70;716.80;;;;;;5071370;28;20562;-73
2021/04/10 11:29:29;;;;;;;6.32;3.33;;;512.30;742.40;;;;;;5073025;28;20028;-71
2021/04/10 11:32:14;;;;;;;5.97;2.75;;;487.30;716.80;;;;;;5066762;28;20024;-74
2021/04/10 11:34:49;;;;;;;4.57;2.90;;;487.10;716.80;;;;;;5058458;28;20027;-75
2021/04/10 11:37:27;;;;;;;5.80;2.88;;;512.00;768.00;;;;;;5071490;28;20077;-72
2021/04/10 11:39:57;;;;;;;4.75;2.92;;;487.30;742.40;;;;;;5071471;28;20088;-75
2021/04/10 11:42:37;;;;;;;4.37;2.77;;;487.30;742.40;;;;;;5072060;28;20024;-74
2021/04/10 11:45:05;;;;;;;4.50;2.88;;;487.30;742.40;;;;;;5071975;28;20289;-68
2021/04/10 11:47:33;;;;;;;4.28;2.75;;;512.40;742.40;;;;;;5071950;28;20352;-68
2021/04/10 11:50:09;;;;;;;5.63;3.20;;;512.70;716.80;;;;;;5071871;28;20078;-68
2021/04/10 11:52:36;;;;;;;5.55;2.95;;;486.80;691.20;;;;;;5071745;28;20386;-68
2021/04/10 11:55:08;;;;;;;5.55;3.00;;;487.00;716.80;;;;;;5057590;28;20371;-68
2021/04/10 11:57:35;;;;;;;6.63;3.70;;;487.00;716.80;;;;;;5059976;28;20078;-68
2021/04/10 12:00:06;;;;;;;4.10;2.63;;;486.80;716.80;;;;;;5070209;28;20551;-68
2021/04/10 12:02:36;;;;;;;6.93;3.35;;;487.00;716.80;;;;;;5071399;28;20496;-69
2021/04/10 12:05:24;;;;;;;5.35;2.55;;;487.20;716.80;;;;;;5071220;28;20024;-68
2021/04/10 12:08:22;;;;;;;5.57;3.65;;;487.30;665.60;;;;;;5071582;28;20101;-68
2021/04/10 12:10:51;;;;;;;4.35;2.33;;;512.30;691.20;;;;;;5071131;28;20103;-69
2021/04/10 12:13:18;;;;;;;4.15;2.30;;;512.20;691.20;;;;;;5070913;28;20028;-68
2021/04/10 12:15:48;;;;;;;4.25;2.45;;;512.90;691.20;;;;;;5071372;28;20440;-68
2021/04/10 12:18:14;;;;;;;;;;;537.80;691.20;;;;;;5071598;28;20037;-72
2021/04/10 12:20:40;;;;;;;3.85;2.50;;;538.30;665.60;;;;;;5071063;28;19905;-68
2021/04/10 12:23:07;;;;;;;6.82;4.00;;;538.50;665.60;;;;;;5071105;28;20024;-73
2021/04/10 12:25:34;;;;;;;9.63;3.97;;;538.50;691.20;;;;;;5070772;28;20033;-68
2021/04/10 12:28:04;;;;;;;6.65;3.50;;;538.10;716.80;;;;;;5070916;28;20505;-74